Time;durP1;ratioP1;P1;durP2;ratioP2;P2;SDS_P1;SDS_P2;PMS_P1;PMS_P2;Temp;Humidity;BMP_temperature;BMP_pressure;BME280_temperature;BME280_humidity;BME280_pressure;Samples;Min_cycle;Max_cycle;Signal;HPM_P1;HPM_P2
2022/08/01 00:02:11;;;;;;;2.60;1.87;;;22.50;89.40;;;;;;4999151;28;20188;-80
2022/08/01 00:04:37;;;;;;;1.90;1.70;;;22.50;89.80;;;;;;5001546;28;20284;-79
2022/08/01 00:07:03;;;;;;;2.83;1.70;;;22.50;89.50;;;;;;5001952;28;20190;-80
2022/08/01 00:09:29;;;;;;;1.73;1.63;;;22.50;90.00;;;;;;4986385;28;20203;-79
2022/08/01 00:11:55;;;;;;;2.80;1.90;;;22.50;90.00;;;;;;5002224;28;20428;-80
2022/08/01 00:14:20;;;;;;;3.63;1.90;;;22.40;90.10;;;;;;4999199;28;20184;-80
2022/08/01 00:16:46;;;;;;;3.63;1.80;;;22.40;90.00;;;;;;4998293;28;20189;-81
2022/08/01 00:19:12;;;;;;;2.40;1.60;;;22.40;90.40;;;;;;4983555;28;20223;-80
2022/08/01 00:21:37;;;;;;;2.97;1.50;;;22.40;90.40;;;;;;4983559;28;20622;-80
2022/08/01 00:24:03;;;;;;;2.73;2.13;;;22.40;90.40;;;;;;4998031;28;20326;-81
2022/08/01 00:26:29;;;;;;;2.10;1.80;;;22.40;90.60;;;;;;4986230;28;20187;-80
2022/08/01 00:28:54;;;;;;;4.10;2.40;;;22.30;90.40;;;;;;4984893;28;20205;-79
2022/08/01 00:31:20;;;;;;;3.27;2.03;;;22.30;90.70;;;;;;4984057;28;20183;-79
2022/08/01 00:33:46;;;;;;;4.00;2.17;;;22.20;90.80;;;;;;4998906;28;20197;-79
2022/08/01 00:36:11;;;;;;;2.83;2.30;;;22.20;90.90;;;;;;4983747;28;20183;-80
2022/08/01 00:38:37;;;;;;;5.07;2.27;;;22.20;90.70;;;;;;4998919;28;20256;-80
2022/08/01 00:41:03;;;;;;;4.60;2.40;;;22.20;90.70;;;;;;4997409;28;20230;-79
2022/08/01 00:43:28;;;;;;;2.40;2.20;;;22.20;90.60;;;;;;4996818;28;20200;-80
2022/08/01 00:45:54;;;;;;;2.10;1.90;;;22.20;91.00;;;;;;4996893;28;20198;-80
2022/08/01 00:48:20;;;;;;;2.27;2.07;;;22.20;91.10;;;;;;4996791;28;20226;-79
2022/08/01 00:50:46;;;;;;;6.83;2.17;;;22.20;90.90;;;;;;4983102;28;20196;-80
2022/08/01 00:53:12;;;;;;;11.40;2.83;;;22.20;91.10;;;;;;4999921;28;20207;-80
2022/08/01 00:55:37;;;;;;;2.30;2.20;;;22.20;91.20;;;;;;4985730;28;20491;-80
2022/08/01 00:58:03;;;;;;;2.67;2.10;;;22.10;91.40;;;;;;5002705;28;20272;-80
2022/08/01 01:00:29;;;;;;;3.17;2.20;;;22.10;91.50;;;;;;4983300;28;20317;-79
2022/08/01 01:02:55;;;;;;;2.83;2.30;;;22.10;91.60;;;;;;4999357;28;20201;-79
2022/08/01 01:05:21;;;;;;;5.43;2.90;;;22.10;91.90;;;;;;4999403;28;20456;-80
2022/08/01 01:07:46;;;;;;;3.20;2.30;;;22.00;91.80;;;;;;4998785;28;20643;-79
2022/08/01 01:10:27;;;;;;;2.40;2.20;;;22.00;92.00;;;;;;5016075;28;20456;-79
2022/08/01 01:13:01;;;;;;;2.90;1.97;;;22.00;92.20;;;;;;4998090;28;20190;-80
2022/08/01 01:15:41;;;;;;;2.53;2.00;;;22.00;92.10;;;;;;5015460;28;20467;-80
2022/08/01 01:18:17;;;;;;;2.73;2.30;;;22.00;92.50;;;;;;4998705;28;20466;-81
2022/08/01 01:21:08;;;;;;;4.53;2.67;;;21.90;92.60;;;;;;5001157;28;20472;-80
2022/08/01 01:23:44;;;;;;;2.20;1.80;;;21.90;92.60;;;;;;4995486;28;20426;-77
2022/08/01 01:26:36;;;;;;;1.97;1.80;;;21.90;92.90;;;;;;5011567;28;20406;-78
2022/08/01 01:29:22;;;;;;;5.27;2.00;;;21.80;93.00;;;;;;5014661;28;20481;-79
2022/08/01 01:31:55;;;;;;;3.90;1.90;;;21.80;93.30;;;;;;4995020;28;20420;-80
2022/08/01 01:34:23;;;;;;;3.03;1.90;;;21.70;93.30;;;;;;4994962;28;20505;-80
2022/08/01 01:36:51;;;;;;;2.67;2.20;;;21.70;93.70;;;;;;4994515;28;20423;-80
2022/08/01 01:39:19;;;;;;;2.60;2.20;;;21.70;93.70;;;;;;4994763;28;20491;-81
2022/08/01 01:41:48;;;;;;;3.07;2.47;;;21.60;93.90;;;;;;4994340;28;20429;-80
2022/08/01 01:44:15;;;;;;;2.83;2.60;;;21.60;94.10;;;;;;4994626;28;20429;-80
2022/08/01 01:46:41;;;;;;;3.50;2.50;;;21.60;94.50;;;;;;4994426;28;20505;-80
2022/08/01 01:49:10;;;;;;;2.10;2.00;;;21.50;94.80;;;;;;5013728;28;20440;-81
2022/08/01 01:51:37;;;;;;;6.77;2.70;;;21.50;95.40;;;;;;4997718;28;20867;-79
2022/08/01 01:54:06;;;;;;;2.13;1.93;;;21.40;95.70;;;;;;4979837;28;20500;-79
2022/08/01 01:56:33;;;;;;;2.80;2.50;;;21.40;95.90;;;;;;4980337;28;20429;-80
2022/08/01 01:59:02;;;;;;;2.67;2.10;;;21.40;96.40;;;;;;5014979;28;21246;-79
2022/08/01 02:01:32;;;;;;;3.77;2.30;;;21.40;96.00;;;;;;4995455;28;20439;-79
2022/08/01 02:03:59;;;;;;;3.80;2.37;;;21.40;96.00;;;;;;4996543;28;20960;-79
2022/08/01 02:06:27;;;;;;;3.47;1.87;;;21.30;96.40;;;;;;5014633;28;20424;-80
2022/08/01 02:08:54;;;;;;;5.37;2.30;;;21.30;97.00;;;;;;4980036;28;20445;-79
2022/08/01 02:11:21;;;;;;;3.33;2.60;;;21.30;96.90;;;;;;4996111;28;20524;-80
2022/08/01 02:13:58;;;;;;;2.93;2.47;;;21.20;97.00;;;;;;5014040;28;20539;-80
2022/08/01 02:16:26;;;;;;;5.93;2.30;;;21.20;97.80;;;;;;4981160;28;20428;-79
2022/08/01 02:18:53;;;;;;;4.63;2.60;;;21.20;97.80;;;;;;4996571;28;20467;-80
2022/08/01 02:21:24;;;;;;;3.50;2.60;;;21.10;98.20;;;;;;4996256;28;20420;-79
2022/08/01 02:23:52;;;;;;;3.57;2.20;;;21.10;99.00;;;;;;4996988;28;20409;-79
2022/08/01 02:26:19;;;;;;;2.90;2.47;;;21.10;99.10;;;;;;4996387;28;20417;-78
2022/08/01 02:28:55;;;;;;;3.20;2.47;;;21.10;99.20;;;;;;4997213;28;20469;-79
2022/08/01 02:31:22;;;;;;;3.00;2.80;;;21.00;99.70;;;;;;5014533;28;21280;-79
2022/08/01 02:34:04;;;;;;;2.50;2.30;;;21.00;99.40;;;;;;4980664;28;20568;-79
2022/08/01 02:36:32;;;;;;;3.53;2.90;;;21.00;99.60;;;;;;5014275;28;20473;-80
2022/08/01 02:39:01;;;;;;;5.17;2.50;;;20.90;99.90;;;;;;4994892;28;20964;-79
2022/08/01 02:41:27;;;;;;;4.77;2.60;;;20.90;99.90;;;;;;4978424;28;20424;-79
2022/08/01 02:43:59;;;;;;;3.23;2.93;;;20.90;99.90;;;;;;4976866;28;20421;-79
2022/08/01 02:46:37;;;;;;;2.67;2.43;;;20.90;99.90;;;;;;4993724;28;21013;-78
2022/08/01 02:49:05;;;;;;;2.80;2.60;;;20.90;99.90;;;;;;4993384;28;20469;-80
2022/08/01 02:51:31;;;;;;;2.33;2.00;;;20.80;99.90;;;;;;4993947;28;20435;-81
2022/08/01 02:53:59;;;;;;;2.87;2.30;;;20.80;99.90;;;;;;4993058;28;20948;-78
2022/08/01 02:56:34;;;;;;;4.87;3.40;;;20.80;99.90;;;;;;4992590;28;20447;-81
2022/08/01 02:59:02;;;;;;;5.07;2.63;;;20.80;99.90;;;;;;4976962;28;20451;-82
2022/08/01 03:01:29;;;;;;;3.90;3.13;;;20.80;99.90;;;;;;4976239;28;20431;-79
2022/08/01 03:03:55;;;;;;;3.33;2.80;;;20.80;99.90;;;;;;4992007;28;20446;-79
2022/08/01 03:06:21;;;;;;;3.30;3.00;;;20.70;99.90;;;;;;5009653;28;20404;-79
2022/08/01 03:08:48;;;;;;;2.90;2.70;;;20.70;99.90;;;;;;5009471;28;20921;-79
2022/08/01 03:11:15;;;;;;;3.70;3.30;;;20.60;99.90;;;;;;4975641;28;20431;-79
2022/08/01 03:13:43;;;;;;;7.03;3.03;;;20.60;99.90;;;;;;5008933;28;20470;-79
2022/08/01 03:16:11;;;;;;;3.03;2.70;;;20.60;99.90;;;;;;4975551;28;20420;-79
2022/08/01 03:18:38;;;;;;;4.17;2.90;;;20.50;99.90;;;;;;4991763;28;20507;-79
2022/08/01 03:21:08;;;;;;;2.87;2.57;;;20.50;99.90;;;;;;4975901;28;21013;-79
2022/08/01 03:23:36;;;;;;;5.17;2.70;;;20.50;99.90;;;;;;5009240;28;20416;-80
2022/08/01 03:26:02;;;;;;;2.93;2.50;;;20.50;99.90;;;;;;4975528;28;20454;-82
2022/08/01 03:28:30;;;;;;;3.20;2.90;;;20.40;99.90;;;;;;4975294;28;20448;-82
2022/08/01 03:30:57;;;;;;;6.07;3.40;;;20.50;99.90;;;;;;4975401;28;20428;-82
2022/08/01 03:33:23;;;;;;;5.20;2.90;;;20.50;99.90;;;;;;4992094;28;20424;-82
2022/08/01 03:35:53;;;;;;;3.30;3.03;;;20.40;99.90;;;;;;4976962;28;20963;-82
2022/08/01 03:38:23;;;;;;;4.07;2.90;;;20.40;99.90;;;;;;4976872;28;20263;-82
2022/08/01 03:40:55;;;;;;;2.97;2.77;;;20.40;99.90;;;;;;4977173;28;20891;-82
2022/08/01 03:43:36;;;;;;;10.40;2.53;;;20.40;99.90;;;;;;5011162;28;20470;-82
2022/08/01 03:46:09;;;;;;;3.13;2.80;;;20.30;99.90;;;;;;4993090;28;20443;-82
2022/08/01 03:48:40;;;;;;;3.37;3.07;;;20.30;99.90;;;;;;4976977;28;20448;-81
2022/08/01 03:51:08;;;;;;;3.33;2.80;;;20.20;99.90;;;;;;4992883;28;20475;-82
2022/08/01 03:53:35;;;;;;;3.30;3.00;;;20.10;99.90;;;;;;4992999;28;20420;-82
2022/08/01 03:56:03;;;;;;;3.00;2.70;;;20.10;99.90;;;;;;4993307;28;20883;-81
2022/08/01 03:58:33;;;;;;;3.80;3.40;;;20.00;99.90;;;;;;4977300;28;20456;-82
2022/08/01 04:00:59;;;;;;;3.50;2.97;;;19.90;99.90;;;;;;4976532;28;20475;-81
2022/08/01 04:03:25;;;;;;;3.30;3.00;;;19.90;99.90;;;;;;5007900;28;20433;-76
2022/08/01 04:05:51;;;;;;;3.57;3.27;;;19.80;99.90;;;;;;4989263;28;20440;-77
2022/08/01 04:08:16;;;;;;;2.83;2.57;;;19.70;99.90;;;;;;5007322;28;20535;-76
2022/08/01 04:10:42;;;;;;;3.53;3.03;;;19.70;99.90;;;;;;4989695;28;20594;-76
2022/08/01 04:13:08;;;;;;;6.50;3.27;;;19.60;99.90;;;;;;5007236;28;20190;-76
2022/08/01 04:15:33;;;;;;;3.20;2.83;;;19.50;99.90;;;;;;4989429;28;20240;-77
2022/08/01 04:17:59;;;;;;;3.43;3.13;;;19.50;99.90;;;;;;5007378;28;20190;-77
2022/08/01 04:20:25;;;;;;;3.40;3.10;;;19.50;99.90;;;;;;4989666;28;20209;-78
2022/08/01 04:22:50;;;;;;;4.10;3.10;;;19.50;99.90;;;;;;4991030;28;20185;-79
2022/08/01 04:25:32;;;;;;;4.60;2.93;;;19.50;99.90;;;;;;4993079;28;20621;-78
2022/08/01 04:28:00;;;;;;;2.60;2.40;;;19.60;99.90;;;;;;4994604;28;20605;-79
2022/08/01 04:30:29;;;;;;;3.00;2.70;;;19.70;99.90;;;;;;4994998;28;20426;-78
2022/08/01 04:32:57;;;;;;;3.30;3.10;;;19.70;99.90;;;;;;4995094;28;20427;-79
2022/08/01 04:35:26;;;;;;;2.93;2.73;;;19.80;99.90;;;;;;5012281;28;20420;-78
2022/08/01 04:37:53;;;;;;;4.00;3.10;;;19.80;99.90;;;;;;5011973;28;20801;-79
2022/08/01 04:40:21;;;;;;;2.70;2.50;;;19.80;99.90;;;;;;4995129;28;20483;-79
2022/08/01 04:42:48;;;;;;;5.00;2.83;;;19.90;99.90;;;;;;4994934;28;20921;-79
2022/08/01 04:45:15;;;;;;;2.50;2.20;;;19.90;99.90;;;;;;4995091;28;20493;-79
2022/08/01 04:47:42;;;;;;;3.67;2.40;;;19.90;99.90;;;;;;5012947;28;20475;-79
2022/08/01 04:50:09;;;;;;;2.60;2.40;;;19.90;99.90;;;;;;4995480;28;20448;-79
2022/08/01 04:52:36;;;;;;;4.80;2.80;;;19.90;99.90;;;;;;4979496;28;20494;-79
2022/08/01 04:55:04;;;;;;;3.63;2.80;;;19.90;99.90;;;;;;4996090;28;20749;-79
2022/08/01 04:57:30;;;;;;;3.30;3.00;;;19.80;99.90;;;;;;5011296;28;20905;-78
2022/08/01 04:59:59;;;;;;;3.43;3.20;;;19.70;99.90;;;;;;5010783;28;20897;-78
2022/08/01 05:02:27;;;;;;;2.87;2.67;;;19.60;99.90;;;;;;4992869;28;20420;-79
2022/08/01 05:04:54;;;;;;;5.90;2.83;;;19.60;99.90;;;;;;4992976;28;20832;-79
2022/08/01 05:07:20;;;;;;;4.07;3.17;;;19.50;99.90;;;;;;5010900;28;20524;-79
2022/08/01 05:09:46;;;;;;;3.83;3.20;;;19.40;99.90;;;;;;4993110;28;20558;-79
2022/08/01 05:12:12;;;;;;;3.00;2.70;;;19.40;99.90;;;;;;5011162;28;20423;-79
2022/08/01 05:14:39;;;;;;;4.20;2.60;;;19.40;99.90;;;;;;4993215;28;20979;-79
2022/08/01 05:17:06;;;;;;;3.33;2.70;;;19.50;99.90;;;;;;4977169;28;20431;-79
2022/08/01 05:19:33;;;;;;;3.90;2.80;;;19.50;99.90;;;;;;4977244;28;20493;-79
2022/08/01 05:22:00;;;;;;;4.53;3.13;;;19.50;99.90;;;;;;4994906;28;20515;-79
2022/08/01 05:24:28;;;;;;;2.73;2.40;;;19.50;99.90;;;;;;5012935;28;20420;-79
2022/08/01 05:26:54;;;;;;;4.60;3.27;;;19.60;99.90;;;;;;5012203;28;20430;-79
2022/08/01 05:29:20;;;;;;;4.10;2.80;;;19.60;99.90;;;;;;4994651;28;20452;-79
2022/08/01 05:31:46;;;;;;;8.93;3.37;;;19.60;99.90;;;;;;5012039;28;20438;-79
2022/08/01 05:34:11;;;;;;;2.77;2.50;;;19.80;99.90;;;;;;4977219;28;20185;-78
2022/08/01 05:36:37;;;;;;;2.97;2.77;;;20.00;99.90;;;;;;4993753;28;20334;-78
2022/08/01 05:39:04;;;;;;;2.87;2.60;;;20.20;99.90;;;;;;4976951;28;20240;-78
2022/08/01 05:41:30;;;;;;;2.83;2.53;;;20.40;99.90;;;;;;5010700;28;20177;-79
2022/08/01 05:43:56;;;;;;;3.60;1.87;;;20.70;99.90;;;;;;4993226;28;20433;-79
2022/08/01 05:46:22;;;;;;;3.00;2.30;;;20.90;99.90;;;;;;4976599;28;20425;-78
2022/08/01 05:48:47;;;;;;;8.53;3.90;;;21.10;99.90;;;;;;4976309;28;20280;-79
2022/08/01 05:51:13;;;;;;;2.10;2.00;;;21.30;99.90;;;;;;5010973;28;20185;-78
2022/08/01 05:53:38;;;;;;;3.97;2.23;;;21.40;99.90;;;;;;4976953;28;20740;-79
2022/08/01 05:56:04;;;;;;;3.47;2.50;;;21.60;99.90;;;;;;4992942;28;20753;-79
2022/08/01 05:58:31;;;;;;;4.40;2.50;;;21.60;99.90;;;;;;5010524;28;20209;-78
2022/08/01 06:00:57;;;;;;;2.73;2.27;;;21.80;99.90;;;;;;5010723;28;21002;-78
2022/08/01 06:03:23;;;;;;;4.10;2.50;;;21.90;99.90;;;;;;5010837;28;20417;-78
2022/08/01 06:05:48;;;;;;;6.80;2.20;;;22.00;99.90;;;;;;4992909;28;20440;-79
2022/08/01 06:08:14;;;;;;;2.70;2.07;;;22.10;99.90;;;;;;4992852;28;20208;-78
2022/08/01 06:10:40;;;;;;;2.50;2.30;;;22.30;99.90;;;;;;5010033;28;20225;-78
2022/08/01 06:13:06;;;;;;;5.07;2.30;;;22.40;99.90;;;;;;4992346;28;20425;-78
2022/08/01 06:15:32;;;;;;;3.70;2.50;;;22.50;99.90;;;;;;4975743;28;20243;-79
2022/08/01 06:17:58;;;;;;;3.17;2.80;;;22.70;99.90;;;;;;5010495;28;20190;-78
2022/08/01 06:20:24;;;;;;;2.60;2.20;;;22.70;99.90;;;;;;5011432;28;20464;-78
2022/08/01 06:22:51;;;;;;;2.97;2.67;;;22.80;99.90;;;;;;4993963;28;20931;-78
2022/08/01 06:25:17;;;;;;;2.60;2.40;;;22.90;99.90;;;;;;4994051;28;20181;-78
2022/08/01 06:27:44;;;;;;;7.67;2.40;;;23.00;99.90;;;;;;4994025;28;20417;-78
2022/08/01 06:30:10;;;;;;;3.70;2.53;;;23.00;99.90;;;;;;5012153;28;20443;-78
2022/08/01 06:32:36;;;;;;;2.40;2.30;;;22.90;99.90;;;;;;4994310;28;20429;-78
2022/08/01 06:35:01;;;;;;;2.70;2.50;;;22.90;99.90;;;;;;4995409;28;20439;-78
2022/08/01 06:37:32;;;;;;;3.40;2.80;;;22.90;99.90;;;;;;4994040;28;20215;-78
2022/08/01 06:40:06;;;;;;;3.33;2.50;;;22.90;99.90;;;;;;5012935;28;20212;-78
2022/08/01 06:42:35;;;;;;;2.90;2.67;;;22.70;99.90;;;;;;5012210;28;20425;-78
2022/08/01 06:45:09;;;;;;;3.10;2.80;;;22.70;99.90;;;;;;4994527;28;20461;-78
2022/08/01 06:47:36;;;;;;;2.83;2.63;;;22.80;99.90;;;;;;4992834;28;20484;-78
2022/08/01 06:50:02;;;;;;;2.53;2.33;;;22.80;99.90;;;;;;5011065;28;20528;-79
2022/08/01 06:52:28;;;;;;;3.57;3.17;;;22.80;99.90;;;;;;4993943;28;20464;-78
2022/08/01 06:54:53;;;;;;;3.20;3.00;;;22.90;99.90;;;;;;5011227;28;20436;-78
2022/08/01 06:57:19;;;;;;;3.43;2.77;;;23.00;99.90;;;;;;4993010;28;20194;-78
2022/08/01 06:59:45;;;;;;;3.93;3.37;;;23.00;99.90;;;;;;4993238;28;20226;-78
2022/08/01 07:02:10;;;;;;;3.17;2.70;;;23.10;99.90;;;;;;4977104;28;20689;-78
2022/08/01 07:04:36;;;;;;;4.30;2.63;;;23.20;99.90;;;;;;4978576;28;20873;-78
2022/08/01 07:07:03;;;;;;;5.70;3.30;;;23.30;99.90;;;;;;5014515;28;20182;-78
2022/08/01 07:09:28;;;;;;;7.20;2.80;;;23.30;99.90;;;;;;5015386;28;20199;-78
2022/08/01 07:11:55;;;;;;;2.60;2.40;;;23.30;99.90;;;;;;4995832;28;20424;-78
2022/08/01 07:14:21;;;;;;;3.80;3.23;;;23.50;99.90;;;;;;4996661;28;20268;-78
2022/08/01 07:16:47;;;;;;;4.80;2.70;;;23.40;99.90;;;;;;4996897;28;21032;-78
2022/08/01 07:19:13;;;;;;;5.27;2.77;;;23.30;99.90;;;;;;4996096;28;20441;-78
2022/08/01 07:21:39;;;;;;;3.13;2.77;;;23.40;99.90;;;;;;4996355;28;20436;-78
2022/08/01 07:24:06;;;;;;;3.17;2.83;;;23.30;99.90;;;;;;5013865;28;20499;-78
2022/08/01 07:26:31;;;;;;;5.00;2.50;;;23.30;99.90;;;;;;5014331;28;20433;-78
2022/08/01 07:28:57;;;;;;;2.73;2.53;;;23.30;99.90;;;;;;4997478;28;20445;-78
2022/08/01 07:31:23;;;;;;;2.87;2.67;;;23.30;99.90;;;;;;4996840;28;20196;-78
2022/08/01 07:33:49;;;;;;;3.20;2.87;;;23.20;99.90;;;;;;5015244;28;20183;-78
2022/08/01 07:36:18;;;;;;;2.87;2.67;;;23.30;99.90;;;;;;5015038;28;20183;-78
2022/08/01 07:38:45;;;;;;;4.93;3.00;;;23.30;99.90;;;;;;5014330;28;21011;-78
2022/08/01 07:41:11;;;;;;;3.37;2.50;;;23.30;99.90;;;;;;5014300;28;20938;-78
2022/08/01 07:43:37;;;;;;;3.00;2.70;;;23.30;99.90;;;;;;5015382;28;20512;-78
2022/08/01 07:46:04;;;;;;;3.90;2.60;;;23.20;99.90;;;;;;5016401;28;20622;-78
2022/08/01 07:48:30;;;;;;;2.07;1.97;;;23.20;99.90;;;;;;4993385;28;20449;-79
2022/08/01 07:50:56;;;;;;;2.90;2.70;;;23.30;99.90;;;;;;4993644;28;20434;-78
2022/08/01 07:53:22;;;;;;;3.00;2.20;;;23.30;99.90;;;;;;5010418;28;20184;-78
2022/08/01 07:55:48;;;;;;;2.90;2.60;;;23.40;99.90;;;;;;5011083;28;20429;-78
2022/08/01 07:58:15;;;;;;;2.53;2.33;;;23.30;99.90;;;;;;5010964;28;20468;-78
2022/08/01 08:00:40;;;;;;;2.37;2.17;;;23.40;99.90;;;;;;5014067;28;20474;-78
2022/08/01 08:03:06;;;;;;;4.03;2.40;;;23.50;99.90;;;;;;4983566;28;20506;-78
2022/08/01 08:05:35;;;;;;;3.30;2.40;;;23.50;99.90;;;;;;5000086;28;20216;-79
2022/08/01 08:08:08;;;;;;;3.70;2.60;;;23.60;99.90;;;;;;4997346;28;20187;-79
2022/08/01 08:10:34;;;;;;;3.20;2.10;;;23.60;99.90;;;;;;4998151;28;20430;-79
2022/08/01 08:13:01;;;;;;;3.10;1.80;;;23.70;99.90;;;;;;5015922;28;20856;-78
2022/08/01 08:15:27;;;;;;;2.80;2.10;;;23.70;99.90;;;;;;5014113;28;20431;-78
2022/08/01 08:17:53;;;;;;;3.63;1.93;;;23.70;99.90;;;;;;4996280;28;21010;-79
2022/08/01 08:20:21;;;;;;;3.30;1.90;;;23.70;99.90;;;;;;4980207;28;20464;-79
2022/08/01 08:22:46;;;;;;;2.40;2.10;;;23.70;99.90;;;;;;4996782;28;20191;-79
2022/08/01 08:25:12;;;;;;;4.90;2.10;;;23.90;99.90;;;;;;4997080;28;20427;-79
2022/08/01 08:27:38;;;;;;;2.23;2.03;;;24.00;99.90;;;;;;5014143;28;20184;-78
2022/08/01 08:30:07;;;;;;;3.80;1.67;;;24.20;99.90;;;;;;5014062;28;20303;-78
2022/08/01 08:32:34;;;;;;;2.27;1.83;;;24.30;99.90;;;;;;5014023;28;20423;-78
2022/08/01 08:34:59;;;;;;;3.23;1.80;;;24.40;99.90;;;;;;5013949;28;21080;-78
2022/08/01 08:37:25;;;;;;;2.57;2.17;;;24.40;99.90;;;;;;4996322;28;20438;-78
2022/08/01 08:39:50;;;;;;;1.77;1.40;;;24.50;99.60;;;;;;4996311;28;20235;-78
2022/08/01 08:42:18;;;;;;;3.23;2.03;;;24.60;99.70;;;;;;4994064;28;20777;-77
2022/08/01 08:44:43;;;;;;;3.03;2.03;;;24.70;99.90;;;;;;5011369;28;20177;-78
2022/08/01 08:47:11;;;;;;;4.47;2.50;;;24.80;99.40;;;;;;4993392;28;20427;-78
2022/08/01 08:49:37;;;;;;;2.00;1.83;;;24.90;99.90;;;;;;4993680;28;20281;-77
2022/08/01 08:52:04;;;;;;;3.40;2.37;;;25.10;99.90;;;;;;5011060;28;20500;-78
2022/08/01 08:54:31;;;;;;;2.17;1.90;;;25.10;99.90;;;;;;4976671;28;20431;-78
2022/08/01 08:56:58;;;;;;;4.50;2.33;;;25.00;98.70;;;;;;4993009;28;20427;-78
2022/08/01 08:59:25;;;;;;;2.53;2.40;;;25.10;99.30;;;;;;5010447;28;20479;-78
2022/08/01 09:01:51;;;;;;;3.00;2.80;;;25.20;99.60;;;;;;4994726;28;20454;-78
2022/08/01 09:04:17;;;;;;;3.47;2.87;;;25.30;98.50;;;;;;4993448;28;20444;-77
2022/08/01 09:06:43;;;;;;;3.17;2.87;;;25.50;97.50;;;;;;4993374;28;20435;-78
2022/08/01 09:09:09;;;;;;;4.00;2.60;;;25.60;97.70;;;;;;4993435;28;20197;-78
2022/08/01 09:11:35;;;;;;;2.87;2.30;;;25.90;97.10;;;;;;5010501;28;20439;-77
2022/08/01 09:14:07;;;;;;;5.30;2.60;;;26.20;96.80;;;;;;4992684;28;20864;-78
2022/08/01 09:16:34;;;;;;;6.37;3.33;;;26.40;96.70;;;;;;5010254;28;20431;-77
2022/08/01 09:19:10;;;;;;;2.77;2.53;;;26.50;96.00;;;;;;4992767;28;20534;-78
2022/08/01 09:21:36;;;;;;;3.17;2.53;;;26.60;94.60;;;;;;5010255;28;20467;-78
2022/08/01 09:24:05;;;;;;;2.30;2.20;;;26.70;95.80;;;;;;5010223;28;20513;-78
2022/08/01 09:26:35;;;;;;;2.63;2.43;;;26.80;96.50;;;;;;5010412;28;20448;-78
2022/08/01 09:29:07;;;;;;;4.90;2.53;;;26.90;94.40;;;;;;4992459;28;20451;-77
2022/08/01 09:31:41;;;;;;;4.27;2.43;;;27.10;94.40;;;;;;4992220;28;20514;-77
2022/08/01 09:34:10;;;;;;;2.50;2.17;;;27.00;92.90;;;;;;5010071;28;20416;-77
2022/08/01 09:36:54;;;;;;;3.83;2.10;;;27.40;93.40;;;;;;4993357;28;20432;-77
2022/08/01 09:39:21;;;;;;;2.50;2.30;;;27.90;92.60;;;;;;5009973;28;21007;-78
2022/08/01 09:41:47;;;;;;;2.63;2.43;;;28.30;92.20;;;;;;5010259;28;20507;-77
2022/08/01 09:44:17;;;;;;;2.50;2.30;;;28.80;89.10;;;;;;4992319;28;20426;-78
2022/08/01 09:46:55;;;;;;;2.77;2.57;;;28.80;91.00;;;;;;5010246;28;20419;-78
2022/08/01 09:49:39;;;;;;;2.43;2.23;;;28.50;90.20;;;;;;4992631;28;20523;-77
2022/08/01 09:52:17;;;;;;;3.13;2.20;;;28.60;90.30;;;;;;5010265;28;20461;-78
2022/08/01 09:54:50;;;;;;;2.37;2.20;;;28.50;90.00;;;;;;4993299;28;20428;-78
2022/08/01 09:57:18;;;;;;;2.60;2.33;;;28.20;90.00;;;;;;4992554;28;20420;-78
2022/08/01 09:59:49;;;;;;;6.70;2.67;;;28.10;89.10;;;;;;4976284;28;20563;-78
2022/08/01 10:02:34;;;;;;;2.70;2.50;;;28.50;90.00;;;;;;5010240;28;20979;-78
2022/08/01 10:05:01;;;;;;;3.10;2.80;;;28.50;90.70;;;;;;4976410;28;20451;-78
2022/08/01 10:07:27;;;;;;;3.07;2.87;;;28.10;90.20;;;;;;4992566;28;20498;-78
2022/08/01 10:09:52;;;;;;;5.40;2.70;;;27.90;91.30;;;;;;4991961;28;20448;-77
2022/08/01 10:12:20;;;;;;;3.60;3.27;;;27.70;90.30;;;;;;4992481;28;20256;-77
2022/08/01 10:14:52;;;;;;;3.17;2.87;;;27.70;90.60;;;;;;5009794;28;20619;-77
2022/08/01 10:17:19;;;;;;;3.20;2.80;;;27.50;91.00;;;;;;5009441;28;20948;-77
2022/08/01 10:19:49;;;;;;;2.50;2.30;;;27.70;90.80;;;;;;4991738;28;21105;-77
2022/08/01 10:22:17;;;;;;;4.00;3.00;;;27.50;91.10;;;;;;5008616;28;20547;-78
2022/08/01 10:24:46;;;;;;;4.53;2.60;;;27.30;91.20;;;;;;5009858;28;20416;-77
2022/08/01 10:27:14;;;;;;;3.43;2.77;;;27.30;91.80;;;;;;5009785;28;20412;-77
2022/08/01 10:30:03;;;;;;;3.07;2.33;;;28.00;90.90;;;;;;4992287;28;20487;-78
2022/08/01 10:32:34;;;;;;;6.87;2.70;;;28.40;90.60;;;;;;4991397;28;20454;-78
2022/08/01 10:35:01;;;;;;;3.20;2.87;;;28.60;90.00;;;;;;4975875;28;20475;-77
2022/08/01 10:37:26;;;;;;;4.00;2.33;;;29.10;87.10;;;;;;5009208;28;20423;-77
2022/08/01 10:39:54;;;;;;;2.33;2.13;;;29.30;86.40;;;;;;5009070;28;20510;-77
2022/08/01 10:42:20;;;;;;;2.40;2.17;;;29.70;84.80;;;;;;5009012;28;20452;-77
2022/08/01 10:44:47;;;;;;;3.00;2.43;;;30.30;84.80;;;;;;5008977;28;20417;-77
2022/08/01 10:47:17;;;;;;;3.13;2.43;;;30.70;84.30;;;;;;5009410;28;20409;-77
2022/08/01 10:50:16;;;;;;;2.83;2.40;;;30.60;79.20;;;;;;5009586;28;20424;-77
2022/08/01 10:53:01;;;;;;;2.90;2.47;;;30.30;79.80;;;;;;4992241;28;20416;-77
2022/08/01 10:55:27;;;;;;;2.90;2.60;;;29.80;79.60;;;;;;5011082;28;21146;-81
2022/08/01 10:57:54;;;;;;;3.03;2.73;;;29.20;80.40;;;;;;4993763;28;20420;-81
2022/08/01 11:00:21;;;;;;;4.03;2.47;;;29.00;83.90;;;;;;5011660;28;20234;-80
2022/08/01 11:03:03;;;;;;;2.40;2.30;;;28.90;85.60;;;;;;4976909;28;20432;-83
2022/08/01 11:05:32;;;;;;;4.57;2.30;;;29.50;84.70;;;;;;4991769;28;20443;-83
2022/08/01 11:08:05;;;;;;;2.10;2.00;;;30.30;80.70;;;;;;4991351;28;21235;-83
2022/08/01 11:10:38;;;;;;;2.83;2.57;;;30.60;80.00;;;;;;4975827;28;20428;-84
2022/08/01 11:13:07;;;;;;;2.77;2.57;;;30.90;80.60;;;;;;4991251;28;20408;-83
2022/08/01 11:15:34;;;;;;;2.70;2.37;;;30.60;78.30;;;;;;4991671;28;21023;-83
2022/08/01 11:18:03;;;;;;;3.03;2.50;;;30.10;79.70;;;;;;4991303;28;20418;-84
2022/08/01 11:20:30;;;;;;;3.37;2.33;;;29.60;80.40;;;;;;4974982;28;20542;-85
2022/08/01 11:23:03;;;;;;;3.70;2.60;;;29.20;81.70;;;;;;4990902;28;20421;-83
2022/08/01 11:25:45;;;;;;;2.83;2.63;;;28.60;80.70;;;;;;4990320;28;20419;-77
2022/08/01 11:28:15;;;;;;;2.90;2.70;;;28.30;84.70;;;;;;5007642;28;20419;-77
2022/08/01 11:30:46;;;;;;;2.60;2.40;;;27.90;87.20;;;;;;5007727;28;20456;-77
2022/08/01 11:33:13;;;;;;;2.70;2.50;;;27.60;86.50;;;;;;4990050;28;20431;-77
2022/08/01 11:36:10;;;;;;;3.20;3.00;;;27.50;88.00;;;;;;4993971;28;20567;-77
2022/08/01 11:38:41;;;;;;;4.50;4.10;;;27.20;89.30;;;;;;4993677;28;20448;-78
2022/08/01 11:41:20;;;;;;;7.20;4.10;;;26.90;91.40;;;;;;5011971;28;20472;-77
2022/08/01 11:43:58;;;;;;;6.23;4.87;;;26.70;92.20;;;;;;4979721;28;20534;-78
2022/08/01 11:46:46;;;;;;;5.30;4.43;;;26.50;95.00;;;;;;5012062;28;20419;-77
2022/08/01 11:49:26;;;;;;;4.90;4.37;;;26.30;97.50;;;;;;5012146;28;20435;-77
2022/08/01 11:52:04;;;;;;;8.77;5.30;;;26.20;98.50;;;;;;5012012;28;20936;-77
2022/08/01 11:54:54;;;;;;;6.03;4.90;;;26.10;99.40;;;;;;4994384;28;20939;-77
2022/08/01 11:57:34;;;;;;;6.67;5.30;;;26.00;99.90;;;;;;4994374;28;20415;-77
2022/08/01 12:00:09;;;;;;;5.67;5.17;;;25.90;99.90;;;;;;4995135;28;20463;-77
2022/08/01 12:02:35;;;;;;;6.90;4.60;;;26.00;99.90;;;;;;5012283;28;20412;-77
2022/08/01 12:05:08;;;;;;;12.87;5.27;;;26.10;98.60;;;;;;5011710;28;20533;-77
2022/08/01 12:07:35;;;;;;;4.80;4.30;;;26.20;99.90;;;;;;5011830;28;20188;-77
2022/08/01 12:10:12;;;;;;;19.93;5.17;;;26.30;99.30;;;;;;4993872;28;20458;-77
2022/08/01 12:12:57;;;;;;;6.50;5.50;;;26.40;99.20;;;;;;4994939;28;20906;-77
2022/08/01 12:15:28;;;;;;;4.57;4.10;;;26.50;98.20;;;;;;5011492;28;21011;-77
2022/08/01 12:18:07;;;;;;;4.87;4.23;;;26.70;97.80;;;;;;4993520;28;20514;-77
2022/08/01 12:20:35;;;;;;;4.23;3.83;;;26.90;96.40;;;;;;4993529;28;20475;-78
2022/08/01 12:23:07;;;;;;;4.33;3.93;;;27.00;96.80;;;;;;5011303;28;21076;-77
2022/08/01 12:25:33;;;;;;;3.90;3.60;;;27.70;96.30;;;;;;5011273;28;20438;-77
2022/08/01 12:28:01;;;;;;;4.30;3.60;;;28.20;94.70;;;;;;5011345;28;20419;-77
2022/08/01 12:30:30;;;;;;;6.40;4.03;;;28.60;92.50;;;;;;5011214;28;20503;-77
2022/08/01 12:32:56;;;;;;;3.43;3.13;;;28.80;91.80;;;;;;4993996;28;20428;-77
2022/08/01 12:35:24;;;;;;;4.07;3.57;;;28.60;91.70;;;;;;5011148;28;20471;-77
2022/08/01 12:37:54;;;;;;;3.10;2.90;;;28.40;93.30;;;;;;4993396;28;20528;-77
2022/08/01 12:40:30;;;;;;;4.83;3.57;;;28.20;91.40;;;;;;4994914;28;20478;-77
2022/08/01 12:42:58;;;;;;;4.70;3.80;;;28.10;92.30;;;;;;4993341;28;21135;-77
2022/08/01 12:45:36;;;;;;;3.20;3.00;;;28.00;92.90;;;;;;5010002;28;21285;-77
2022/08/01 12:48:08;;;;;;;5.30;4.00;;;28.00;92.00;;;;;;5010643;28;20511;-77
2022/08/01 12:50:36;;;;;;;4.20;3.80;;;28.00;91.60;;;;;;5010774;28;20447;-77
2022/08/01 12:53:02;;;;;;;4.03;3.53;;;28.00;91.30;;;;;;4976747;28;20431;-77
2022/08/01 12:55:28;;;;;;;4.70;4.27;;;27.90;92.20;;;;;;4993127;28;20432;-78